Time;durP1;ratioP1;P1;durP2;ratioP2;P2;SDS_P1;SDS_P2;PMS_P1;PMS_P2;Temp;Humidity;BMP_temperature;BMP_pressure;BME280_temperature;BME280_humidity;BME280_pressure;Samples;Min_cycle;Max_cycle;Signal;HPM_P1;HPM_P2
2021/10/17 00:02:14;;;;;;;17.83;13.00;;;;;;;;;;6179066;28;20085;-86
2021/10/17 00:05:16;;;;;;;37.95;13.25;;;7.10;99.90;;;;;;6195010;28;20038;-85
2021/10/17 00:08:17;;;;;;;30.15;13.45;;;7.10;99.90;;;;;;6195343;28;20037;-85
2021/10/17 00:11:18;;;;;;;45.17;16.73;;;;;;;;;;6178707;28;20495;-86
2021/10/17 00:14:19;;;;;;;15.38;13.10;;;;;;;;;;6178868;28;20064;-85
2021/10/17 00:17:20;;;;;;;17.27;13.65;;;;;;;;;;6178739;28;20080;-87
2021/10/17 00:20:21;;;;;;;23.90;13.43;;;7.40;99.90;;;;;;6195382;28;20033;-85
2021/10/17 00:23:22;;;;;;;57.90;13.35;;;7.60;99.90;;;;;;6178607;28;20476;-86
2021/10/17 00:26:23;;;;;;;17.33;12.27;;;;;;;;;;6194930;28;20030;-86
2021/10/17 00:29:24;;;;;;;17.13;12.43;;;;;;;;;;6194553;28;20019;-86
2021/10/17 00:32:25;;;;;;;29.27;11.55;;;;;;;;;;6178157;28;20054;-86
2021/10/17 00:35:26;;;;;;;28.83;12.52;;;7.10;99.90;;;;;;6178467;28;20027;-86
2021/10/17 00:38:26;;;;;;;22.30;11.93;;;7.10;99.90;;;;;;6178152;28;20033;-85
2021/10/17 00:41:31;;;;;;;47.13;12.63;;;7.00;99.90;;;;;;6178604;28;20030;-85
2021/10/17 00:44:32;;;;;;;42.40;12.32;;;6.80;99.90;;;;;;6177889;28;20538;-85
2021/10/17 00:47:33;;;;;;;93.55;14.48;;;6.80;99.90;;;;;;6178069;28;20126;-85
2021/10/17 00:50:34;;;;;;;72.35;12.93;;;;;;;;;;6178275;28;20026;-86
2021/10/17 00:53:34;;;;;;;52.63;12.93;;;6.70;99.90;;;;;;6178482;28;20023;-86
2021/10/17 00:56:35;;;;;;;33.03;10.30;;;6.60;99.90;;;;;;6177982;28;20184;-87
2021/10/17 00:59:36;;;;;;;28.98;10.48;;;;;;;;;;6177746;28;20499;-86
2021/10/17 01:02:37;;;;;;;57.97;10.48;;;;;;;;;;6177802;28;20081;-86
2021/10/17 01:05:37;;;;;;;59.35;11.55;;;6.40;99.90;;;;;;6177912;28;20029;-86
2021/10/17 01:08:39;;;;;;;30.13;9.30;;;6.50;99.90;;;;;;6177775;28;20450;-85
2021/10/17 01:11:45;;;;;;;61.22;10.82;;;6.40;99.90;;;;;;6193683;28;20030;-86
2021/10/17 01:14:45;;;;;;;47.17;10.70;;;6.30;99.90;;;;;;6193688;28;20057;-85
2021/10/17 01:17:46;;;;;;;63.08;11.38;;;;;;;;;;6193617;28;20043;-85
2021/10/17 01:20:47;;;;;;;37.13;9.93;;;6.40;99.90;;;;;;6177679;28;20026;-85
2021/10/17 01:23:47;;;;;;;49.80;10.02;;;6.40;99.90;;;;;;6194037;28;20465;-85
2021/10/17 01:26:48;;;;;;;63.22;11.65;;;;;;;;;;6193752;28;20038;-85
2021/10/17 01:29:49;;;;;;;31.23;11.60;;;6.10;99.90;;;;;;6193759;28;20026;-87
2021/10/17 01:32:50;;;;;;;34.28;9.93;;;5.90;99.90;;;;;;6177337;28;20038;-85
2021/10/17 01:35:50;;;;;;;24.98;10.07;;;6.00;99.90;;;;;;6193494;28;20477;-85
2021/10/17 01:38:51;;;;;;;37.35;10.88;;;6.10;99.90;;;;;;6177276;28;20026;-85
2021/10/17 01:41:51;;;;;;;59.92;11.50;;;6.20;99.90;;;;;;6193832;28;20146;-85
2021/10/17 01:44:52;;;;;;;19.85;9.20;;;;;;;;;;6192740;28;20045;-86
2021/10/17 01:47:53;;;;;;;61.78;12.13;;;6.20;99.90;;;;;;6193035;28;20614;-86
2021/10/17 01:50:54;;;;;;;33.25;8.60;;;;;;;;;;6176656;28;20077;-86
2021/10/17 01:53:55;;;;;;;15.88;8.55;;;;;;;;;;6176617;28;20030;-86
2021/10/17 01:56:56;;;;;;;15.52;8.10;;;;;;;;;;6193157;28;20042;-85
2021/10/17 01:59:57;;;;;;;39.75;9.27;;;;;;;;;;6193240;28;20022;-85
2021/10/17 02:02:58;;;;;;;37.95;8.52;;;5.90;99.90;;;;;;6176635;28;20030;-85
2021/10/17 02:05:59;;;;;;;34.88;8.40;;;6.80;99.90;;;;;;6176580;28;20077;-85
2021/10/17 02:09:00;;;;;;;28.80;7.90;;;5.70;99.90;;;;;;6176732;28;20038;-86
2021/10/17 02:12:00;;;;;;;42.38;9.35;;;5.60;99.90;;;;;;6160714;28;20417;-85
2021/10/17 02:15:04;;;;;;;17.58;7.88;;;6.90;99.90;;;;;;6160553;28;20045;-85
2021/10/17 02:18:05;;;;;;;25.40;9.00;;;6.00;99.90;;;;;;6177265;28;20030;-85
2021/10/17 02:21:05;;;;;;;30.52;8.00;;;8.00;99.90;;;;;;6176348;28;20038;-84
2021/10/17 02:24:10;;;;;;;15.30;7.65;;;7.00;99.90;;;;;;6161071;28;20045;-86
2021/10/17 02:27:11;;;;;;;13.65;7.80;;;5.20;99.90;;;;;;6177198;28;20201;-86
2021/10/17 02:30:11;;;;;;;21.58;8.05;;;5.20;99.90;;;;;;6176873;28;20473;-86
2021/10/17 02:33:12;;;;;;;18.05;7.38;;;5.20;99.90;;;;;;6160424;28;20034;-86
2021/10/17 02:36:13;;;;;;;12.48;7.55;;;5.10;99.90;;;;;;6176270;28;20042;-86
2021/10/17 02:39:13;;;;;;;17.60;7.95;;;5.00;99.90;;;;;;6192829;28;20033;-85
2021/10/17 02:42:14;;;;;;;13.80;8.20;;;;;;;;;;6192730;28;20062;-87
2021/10/17 02:45:15;;;;;;;20.33;8.73;;;;;;;;;;6176060;28;20437;-85
2021/10/17 02:48:16;;;;;;;13.95;7.20;;;4.90;99.90;;;;;;6194215;28;20027;-85
2021/10/17 02:51:16;;;;;;;17.70;9.85;;;5.20;99.90;;;;;;6176470;28;20034;-85
2021/10/17 02:54:17;;;;;;;15.70;9.55;;;;;;;;;;6176215;28;20031;-85
2021/10/17 02:57:18;;;;;;;11.43;9.50;;;4.90;99.90;;;;;;6176355;28;20035;-85
2021/10/17 03:00:19;;;;;;;11.48;8.63;;;6.30;99.90;;;;;;6176254;28;20030;-85
2021/10/17 03:03:19;;;;;;;11.65;8.50;;;4.90;99.90;;;;;;6163485;28;20377;-85
2021/10/17 03:06:25;;;;;;;8.80;7.68;;;5.40;99.90;;;;;;6164416;28;20369;-85
2021/10/17 03:09:26;;;;;;;9.10;7.60;;;5.10;99.90;;;;;;6180565;28;20157;-86
2021/10/17 03:12:26;;;;;;;9.65;8.10;;;4.70;99.90;;;;;;6180079;28;20026;-86
2021/10/17 03:15:27;;;;;;;11.85;9.05;;;5.20;99.90;;;;;;6180363;28;20022;-85
2021/10/17 03:18:27;;;;;;;11.52;8.27;;;4.90;99.90;;;;;;6163856;28;20049;-85
2021/10/17 03:21:28;;;;;;;10.55;8.90;;;5.10;99.90;;;;;;6180117;28;20079;-85
2021/10/17 03:24:29;;;;;;;10.52;7.95;;;;;;;;;;6196627;28;20031;-86
2021/10/17 03:27:30;;;;;;;12.45;8.75;;;;;;;;;;6196067;28;20026;-87
2021/10/17 03:30:31;;;;;;;10.00;8.80;;;4.50;99.90;;;;;;6180075;28;20033;-85
2021/10/17 03:33:31;;;;;;;12.68;9.35;;;5.90;99.90;;;;;;6179907;28;20380;-85
2021/10/17 03:36:32;;;;;;;12.88;9.65;;;6.80;99.90;;;;;;6195887;28;20096;-84
2021/10/17 03:39:32;;;;;;;11.57;8.75;;;6.10;99.90;;;;;;6163906;28;20069;-86
2021/10/17 03:42:33;;;;;;;12.93;9.43;;;6.00;99.90;;;;;;6163928;28;20042;-85
2021/10/17 03:45:34;;;;;;;15.30;9.55;;;5.60;99.90;;;;;;6163718;28;21026;-84
2021/10/17 03:48:34;;;;;;;13.43;9.30;;;4.70;99.90;;;;;;6179580;28;20419;-87
2021/10/17 03:51:35;;;;;;;12.45;9.60;;;5.20;99.90;;;;;;6179513;28;20432;-87
2021/10/17 03:54:40;;;;;;;10.95;8.15;;;5.00;99.90;;;;;;6163366;28;20113;-86
2021/10/17 03:57:41;;;;;;;12.75;9.25;;;4.50;99.90;;;;;;6164277;28;20081;-86
2021/10/17 04:00:42;;;;;;;17.30;9.85;;;4.50;99.90;;;;;;6179403;28;20368;-85
2021/10/17 04:03:42;;;;;;;15.45;8.85;;;4.50;99.90;;;;;;6179593;28;20030;-86
2021/10/17 04:06:43;;;;;;;13.25;7.80;;;4.50;99.90;;;;;;6178907;28;20038;-86
2021/10/17 04:09:44;;;;;;;11.95;7.45;;;4.40;99.90;;;;;;6179303;28;20098;-86
2021/10/17 04:12:44;;;;;;;12.55;8.02;;;4.20;99.90;;;;;;6194855;28;20666;-86
2021/10/17 04:15:45;;;;;;;15.93;8.68;;;4.40;99.90;;;;;;6179196;28;20027;-86
2021/10/17 04:18:45;;;;;;;16.10;8.65;;;4.60;99.90;;;;;;6178746;28;20161;-86
2021/10/17 04:21:46;;;;;;;12.65;8.15;;;;;;;;;;6195206;28;20120;-88
2021/10/17 04:24:47;;;;;;;15.60;8.38;;;;;;;;;;6196879;28;20409;-86
2021/10/17 04:27:48;;;;;;;15.02;9.07;;;4.40;99.90;;;;;;6195046;28;20023;-85
2021/10/17 04:30:49;;;;;;;19.45;7.75;;;;;;;;;;6178921;28;20034;-86
2021/10/17 04:33:50;;;;;;;26.65;7.22;;;;;;;;;;6178418;28;20026;-86
2021/10/17 04:36:51;;;;;;;25.48;7.65;;;;;;;;;;6194622;28;20054;-86
2021/10/17 04:39:51;;;;;;;59.92;9.38;;;4.50;99.90;;;;;;6178326;28;20506;-84
2021/10/17 04:42:52;;;;;;;26.30;8.88;;;4.50;99.90;;;;;;6194882;28;20014;-86
2021/10/17 04:45:53;;;;;;;41.03;9.05;;;;;;;;;;6169968;28;20051;-86
2021/10/17 04:48:54;;;;;;;41.20;9.63;;;;;;;;;;6170285;28;20127;-86
2021/10/17 04:51:55;;;;;;;34.38;8.95;;;4.20;99.90;;;;;;6170240;28;20030;-86
2021/10/17 04:54:55;;;;;;;63.42;9.77;;;5.10;99.90;;;;;;6169826;28;20037;-85
2021/10/17 04:57:57;;;;;;;20.17;7.40;;;3.70;99.90;;;;;;6170269;28;20035;-85
2021/10/17 05:00:57;;;;;;;75.28;8.90;;;4.00;99.90;;;;;;6186240;28;20062;-85
2021/10/17 05:03:58;;;;;;;23.80;10.10;;;;;;;;;;6186437;28;20365;-86
2021/10/17 05:06:59;;;;;;;16.33;10.38;;;;;;;;;;6186215;28;20038;-85
2021/10/17 05:10:00;;;;;;;66.45;14.80;;;3.90;99.90;;;;;;6170085;28;20158;-85
2021/10/17 05:13:01;;;;;;;75.88;16.55;;;;;;;;;;6169969;28;20027;-87
2021/10/17 05:16:01;;;;;;;59.60;15.05;;;4.00;99.90;;;;;;6186374;28;20034;-85
2021/10/17 05:19:02;;;;;;;79.95;13.60;;;6.10;99.90;;;;;;6169875;28;20567;-86
2021/10/17 05:22:03;;;;;;;48.75;14.57;;;4.40;99.90;;;;;;6169638;28;20085;-86
2021/10/17 05:25:04;;;;;;;36.25;14.85;;;4.00;99.90;;;;;;6169368;28;20022;-86
2021/10/17 05:28:04;;;;;;;30.13;13.32;;;4.00;99.90;;;;;;6186079;28;20057;-87
2021/10/17 05:31:05;;;;;;;51.88;13.90;;;4.30;99.90;;;;;;6186049;28;20030;-86
2021/10/17 05:34:05;;;;;;;51.38;16.50;;;5.50;99.90;;;;;;6153814;28;20085;-86
2021/10/17 05:37:06;;;;;;;56.40;16.85;;;4.60;99.90;;;;;;6169640;28;20046;-86
2021/10/17 05:40:07;;;;;;;47.95;14.88;;;4.10;99.90;;;;;;6185564;28;20026;-86
2021/10/17 05:43:07;;;;;;;45.80;14.82;;;3.90;99.90;;;;;;6168982;28;20519;-86
2021/10/17 05:46:08;;;;;;;43.78;14.25;;;;;;;;;;6177195;28;20054;-86
2021/10/17 05:49:09;;;;;;;23.48;14.68;;;3.80;99.90;;;;;;6193887;28;20096;-85
2021/10/17 05:52:10;;;;;;;19.60;13.48;;;4.90;99.90;;;;;;6193669;28;20410;-86
2021/10/17 05:55:10;;;;;;;24.35;13.55;;;3.90;99.90;;;;;;6177788;28;20034;-86
2021/10/17 05:58:11;;;;;;;20.00;12.98;;;;;;;;;;6193156;28;20057;-86
2021/10/17 06:01:12;;;;;;;35.63;13.32;;;4.00;99.90;;;;;;6176769;28;20046;-86
2021/10/17 06:04:12;;;;;;;43.30;12.50;;;4.50;99.90;;;;;;6176909;28;20064;-87
2021/10/17 06:07:13;;;;;;;38.92;12.48;;;4.00;99.90;;;;;;6176725;28;20041;-85
2021/10/17 06:10:14;;;;;;;26.80;13.13;;;4.60;99.90;;;;;;6192718;28;20033;-86
2021/10/17 06:13:14;;;;;;;19.58;13.50;;;4.10;99.90;;;;;;6177087;28;20512;-86
2021/10/17 06:16:15;;;;;;;23.52;18.55;;;4.60;99.90;;;;;;6175162;28;20126;-85
2021/10/17 06:19:15;;;;;;;25.40;17.10;;;5.90;99.90;;;;;;6176602;28;20034;-85
2021/10/17 06:22:16;;;;;;;21.42;16.67;;;6.90;99.90;;;;;;6192529;28;20441;-85
2021/10/17 06:25:17;;;;;;;25.88;16.70;;;6.60;99.90;;;;;;6176859;28;20036;-86
2021/10/17 06:28:18;;;;;;;22.85;14.68;;;;;;;;;;6176929;28;20361;-85
2021/10/17 06:31:19;;;;;;;30.40;12.45;;;;;;;;;;6193538;28;20041;-86
2021/10/17 06:34:20;;;;;;;19.58;12.68;;;;;;;;;;6176778;28;20528;-86
2021/10/17 06:37:21;;;;;;;19.50;13.85;;;4.60;99.90;;;;;;6177704;28;20057;-86
2021/10/17 06:40:22;;;;;;;23.08;12.15;;;;;;;;;;6196837;28;20049;-85
2021/10/17 06:43:22;;;;;;;18.05;11.23;;;4.90;99.90;;;;;;6180556;28;20018;-85
2021/10/17 06:46:23;;;;;;;19.63;11.02;;;4.70;99.90;;;;;;6180758;28;20752;-84
2021/10/17 06:49:24;;;;;;;18.80;11.70;;;;;;;;;;6180883;28;20026;-86
2021/10/17 06:52:25;;;;;;;31.27;12.43;;;;;;;;;;6180949;28;20031;-84
2021/10/17 06:55:26;;;;;;;49.90;12.15;;;;;;;;;;6196807;28;20023;-83
2021/10/17 06:58:26;;;;;;;63.30;13.00;;;5.00;99.90;;;;;;6182447;28;20141;-85
2021/10/17 07:01:27;;;;;;;50.72;12.60;;;5.00;99.90;;;;;;6180298;28;20022;-85
2021/10/17 07:04:28;;;;;;;44.72;12.95;;;;;;;;;;6197166;28;20046;-87
2021/10/17 07:07:29;;;;;;;41.20;12.20;;;5.00;99.90;;;;;;6197651;28;20039;-86
2021/10/17 07:10:29;;;;;;;40.95;12.63;;;5.20;99.90;;;;;;6180693;28;20757;-85
2021/10/17 07:13:30;;;;;;;37.22;12.65;;;6.10;99.90;;;;;;6197451;28;20026;-87
2021/10/17 07:16:30;;;;;;;59.47;13.38;;;5.20;99.90;;;;;;6180300;28;20071;-85
2021/10/17 07:19:31;;;;;;;63.42;13.95;;;;;;;;;;6180892;28;20034;-85
2021/10/17 07:22:32;;;;;;;69.22;14.85;;;5.20;99.90;;;;;;6197431;28;20030;-86
2021/10/17 07:25:33;;;;;;;36.85;14.43;;;;;;;;;;6196998;28;20037;-86
2021/10/17 07:28:34;;;;;;;48.35;17.25;;;5.20;99.90;;;;;;6180670;28;20488;-85
2021/10/17 07:31:34;;;;;;;63.22;16.20;;;7.30;99.90;;;;;;6179852;28;20069;-87
2021/10/17 07:34:35;;;;;;;47.92;14.65;;;;;;;;;;6179687;28;20445;-90
2021/10/17 07:37:36;;;;;;;41.40;17.70;;;5.40;99.90;;;;;;6195469;28;20476;-86
2021/10/17 07:40:37;;;;;;;27.10;15.32;;;;;;;;;;6180417;28;20034;-86
2021/10/17 07:43:38;;;;;;;28.17;14.60;;;5.50;99.90;;;;;;6180276;28;20054;-87
2021/10/17 07:46:39;;;;;;;26.13;15.73;;;;;;;;;;6180183;28;20417;-85
2021/10/17 07:49:39;;;;;;;33.60;18.33;;;5.70;99.90;;;;;;6179847;28;20105;-87
2021/10/17 07:52:40;;;;;;;26.73;15.25;;;6.30;99.90;;;;;;6179772;28;20035;-86
2021/10/17 07:55:43;;;;;;;29.35;15.13;;;6.10;99.90;;;;;;6179886;28;20022;-88
2021/10/17 07:58:43;;;;;;;22.27;15.63;;;6.30;99.90;;;;;;6180178;28;20429;-83
2021/10/17 08:01:44;;;;;;;19.40;13.32;;;;;;;;;;6180090;28;20030;-84
2021/10/17 08:04:51;;;;;;;16.13;12.18;;;6.80;99.90;;;;;;6179262;28;20105;-87
2021/10/17 08:07:53;;;;;;;24.23;18.45;;;6.80;99.90;;;;;;6180029;28;20034;-88
2021/10/17 08:10:54;;;;;;;26.67;19.08;;;6.80;99.90;;;;;;6177991;28;20023;-86
2021/10/17 08:13:54;;;;;;;28.98;12.55;;;6.90;99.90;;;;;;6183133;28;20045;-87
2021/10/17 08:17:10;;;;;;;18.30;12.52;;;7.20;99.90;;;;;;6180328;28;20581;-94
2021/10/17 08:20:11;;;;;;;23.27;14.70;;;;;;;;;;6178832;28;20097;-93
2021/10/17 08:23:13;;;;;;;20.17;13.63;;;;;;;;;;6179571;28;20030;-91
2021/10/17 08:26:14;;;;;;;26.38;19.27;;;;;;;;;;6180243;28;20029;-89
2021/10/17 08:29:15;;;;;;;19.75;13.70;;;7.20;99.90;;;;;;6180248;28;20015;-89
2021/10/17 08:35:54;;;;;;;17.30;13.18;;;8.00;99.90;;;;;;6195186;28;20050;-91
2021/10/17 08:38:55;;;;;;;17.80;11.80;;;;;;;;;;6178496;28;20054;-89
2021/10/17 08:41:56;;;;;;;17.35;13.85;;;8.00;99.90;;;;;;6178322;28;20042;-90
2021/10/17 08:44:57;;;;;;;18.00;12.63;;;;;;;;;;6194151;28;20137;-88
2021/10/17 08:47:58;;;;;;;20.88;14.82;;;8.10;99.90;;;;;;6177947;28;20019;-88
2021/10/17 08:50:59;;;;;;;17.45;14.32;;;;;;;;;;6178903;28;20029;-88
2021/10/17 08:54:00;;;;;;;17.52;13.30;;;;;;;;;;6179427;28;20135;-89
2021/10/17 08:57:01;;;;;;;18.73;13.85;;;;;;;;;;6177803;28;20504;-86
2021/10/17 09:00:02;;;;;;;37.65;28.17;;;8.90;99.90;;;;;;6177145;28;20030;-86
2021/10/17 09:03:03;;;;;;;24.77;17.63;;;;;;;;;;6177717;28;20062;-85
2021/10/17 09:06:14;;;;;;;17.27;12.80;;;9.10;99.90;;;;;;6178481;28;20388;-85
2021/10/17 09:09:17;;;;;;;20.25;18.02;;;9.20;99.90;;;;;;6194191;28;20041;-85
2021/10/17 09:12:24;;;;;;;;;;;9.10;99.90;;;;;;6194986;28;20018;-86
2021/10/17 09:15:29;;;;;;;22.20;19.83;;;9.10;99.90;;;;;;6161942;28;20343;-85
2021/10/17 09:18:34;;;;;;;20.27;16.67;;;9.50;99.90;;;;;;6177746;28;20056;-87
2021/10/17 09:21:35;;;;;;;27.75;20.35;;;8.90;99.90;;;;;;6177818;28;20029;-87
2021/10/17 09:24:40;;;;;;;16.85;13.88;;;9.10;99.90;;;;;;6177609;28;20576;-88
2021/10/17 09:27:44;;;;;;;18.15;14.40;;;9.20;99.90;;;;;;6177530;28;20037;-87
2021/10/17 09:31:10;;;;;;;18.13;14.18;;;9.40;99.90;;;;;;6192916;28;20022;-88
2021/10/17 09:34:11;;;;;;;17.40;13.27;;;9.40;99.90;;;;;;6177548;28;20057;-87
2021/10/17 09:37:13;;;;;;;15.88;12.15;;;;;;;;;;6177362;28;20034;-87
2021/10/17 09:40:19;;;;;;;24.00;16.65;;;9.60;99.90;;;;;;6176977;28;20057;-88
2021/10/17 09:43:22;;;;;;;19.00;13.43;;;9.60;99.90;;;;;;6177203;28;20041;-87
2021/10/17 09:46:24;;;;;;;17.00;12.15;;;9.60;99.90;;;;;;6176979;28;20030;-87
2021/10/17 09:49:24;;;;;;;23.65;17.42;;;9.60;99.90;;;;;;6177077;28;20034;-87
2021/10/17 09:52:25;;;;;;;16.48;13.00;;;;;;;;;;6177190;28;20073;-87
2021/10/17 09:55:26;;;;;;;17.40;13.30;;;9.70;99.90;;;;;;6177211;28;20035;-88
2021/10/17 09:58:28;;;;;;;17.58;13.18;;;9.80;99.90;;;;;;6176885;28;20034;-88
2021/10/17 10:01:29;;;;;;;20.48;15.00;;;10.10;99.90;;;;;;6177127;28;20029;-88
2021/10/17 10:04:30;;;;;;;16.02;11.70;;;;;;;;;;6176920;28;20073;-87
2021/10/17 10:07:31;;;;;;;16.73;12.32;;;10.00;99.90;;;;;;6176774;28;20061;-87
2021/10/17 10:10:32;;;;;;;15.60;12.55;;;10.30;99.90;;;;;;6177725;28;20456;-87
2021/10/17 10:13:33;;;;;;;17.65;12.45;;;;;;;;;;6181975;28;20042;-87
2021/10/17 10:16:34;;;;;;;17.27;12.48;;;10.20;99.90;;;;;;6182111;28;20473;-87
2021/10/17 10:19:35;;;;;;;20.52;15.75;;;;;;;;;;6181300;28;20038;-87
2021/10/17 10:22:35;;;;;;;18.48;12.98;;;10.50;99.90;;;;;;6181712;28;20018;-87
2021/10/17 10:25:37;;;;;;;16.48;12.30;;;10.50;99.90;;;;;;6181744;28;20472;-87
2021/10/17 10:28:38;;;;;;;16.33;13.18;;;10.60;99.90;;;;;;6180198;28;20153;-87
2021/10/17 10:31:44;;;;;;;14.77;11.30;;;10.70;99.90;;;;;;6180815;28;20018;-87
2021/10/17 10:34:49;;;;;;;15.60;12.63;;;11.00;99.90;;;;;;6181112;28;20376;-86
2021/10/17 10:37:50;;;;;;;18.13;11.88;;;11.00;99.90;;;;;;6180460;28;20118;-87
2021/10/17 10:41:16;;;;;;;15.07;12.25;;;11.20;99.90;;;;;;6180779;28;20532;-87
2021/10/17 10:44:20;;;;;;;18.40;13.50;;;11.30;99.90;;;;;;6197045;28;20133;-86
2021/10/17 10:47:25;;;;;;;16.13;12.10;;;11.30;99.90;;;;;;6181204;28;20036;-87
2021/10/17 10:50:37;;;;;;;15.80;12.65;;;11.80;99.90;;;;;;6180753;28;20415;-87
2021/10/17 10:53:48;;;;;;;16.27;12.52;;;11.40;99.90;;;;;;6181030;28;20121;-87
2021/10/17 10:56:52;;;;;;;21.90;13.30;;;11.50;99.90;;;;;;6196702;28;20035;-87
2021/10/17 11:00:05;;;;;;;14.48;12.18;;;11.60;99.90;;;;;;6180590;28;20092;-87
2021/10/17 11:03:13;;;;;;;14.93;11.60;;;11.70;99.90;;;;;;6196981;28;20023;-87
2021/10/17 11:06:15;;;;;;;16.65;13.18;;;11.80;99.90;;;;;;6196408;28;20027;-87
2021/10/17 11:09:24;;;;;;;15.35;11.23;;;11.90;99.90;;;;;;6180354;28;20126;-87
2021/10/17 11:12:43;;;;;;;15.45;12.60;;;11.80;99.90;;;;;;6180348;28;20034;-87
2021/10/17 11:15:46;;;;;;;16.23;12.15;;;11.80;99.90;;;;;;6163842;28;20030;-87
2021/10/17 11:18:47;;;;;;;15.52;11.98;;;11.80;99.90;;;;;;6196435;28;20131;-87
2021/10/17 11:21:47;;;;;;;16.10;12.35;;;11.90;99.90;;;;;;6179291;28;20038;-87
2021/10/17 11:24:55;;;;;;;20.05;14.07;;;12.00;99.90;;;;;;6179031;28;20447;-87
2021/10/17 11:27:55;;;;;;;17.42;13.18;;;12.30;99.90;;;;;;6180009;28;20026;-87
2021/10/17 11:31:02;;;;;;;16.27;13.23;;;12.30;99.90;;;;;;6180051;28;20041;-87
2021/10/17 11:34:03;;;;;;;20.00;14.43;;;12.30;99.90;;;;;;6179828;28;20107;-87
2021/10/17 11:37:21;;;;;;;21.52;15.18;;;12.20;99.90;;;;;;6179517;28;20365;-87
2021/10/17 11:40:22;;;;;;;16.85;12.75;;;12.20;99.90;;;;;;6179823;28;20026;-87
2021/10/17 11:43:22;;;;;;;20.02;14.80;;;11.90;99.90;;;;;;6179357;28;20040;-86
2021/10/17 11:46:30;;;;;;;17.13;13.57;;;12.10;99.90;;;;;;6179877;28;20031;-87
2021/10/17 11:49:31;;;;;;;21.65;14.85;;;12.40;99.90;;;;;;6178972;28;20446;-86
2021/10/17 11:52:31;;;;;;;18.50;14.07;;;12.10;99.90;;;;;;6179731;28;20038;-88
2021/10/17 11:55:32;;;;;;;17.67;14.43;;;;;;;;;;6179088;28;20038;-87
2021/10/17 11:58:33;;;;;;;16.85;13.35;;;;;;;;;;6179397;28;20030;-86
2021/10/17 12:01:35;;;;;;;19.35;14.43;;;12.70;99.90;;;;;;6179364;28;20583;-87
2021/10/17 12:04:42;;;;;;;15.60;13.33;;;12.90;99.90;;;;;;6179325;28;20038;-86
2021/10/17 12:07:43;;;;;;;19.25;13.90;;;13.10;99.90;;;;;;6195663;28;20038;-87
2021/10/17 12:10:44;;;;;;;15.80;13.52;;;;;;;;;;6179141;28;20473;-86
2021/10/17 12:13:49;;;;;;;20.48;14.02;;;13.10;99.90;;;;;;6195646;28;20026;-87
2021/10/17 12:16:50;;;;;;;17.00;13.73;;;13.20;99.90;;;;;;6178633;28;20469;-86
2021/10/17 12:20:13;;;;;;;19.88;15.05;;;13.20;99.90;;;;;;6179076;28;20037;-87
2021/10/17 12:23:13;;;;;;;17.65;14.02;;;13.20;99.90;;;;;;6194437;28;20077;-88
2021/10/17 12:26:18;;;;;;;18.60;14.52;;;13.50;99.90;;;;;;6178393;28;20421;-85
2021/10/17 12:29:19;;;;;;;19.13;14.77;;;13.00;99.90;;;;;;6178665;28;20361;-85
2021/10/17 12:32:21;;;;;;;19.25;13.60;;;13.10;99.90;;;;;;6195370;28;20372;-84
2021/10/17 12:35:32;;;;;;;19.05;13.45;;;13.20;99.90;;;;;;6178429;28;20041;-82
2021/10/17 12:38:36;;;;;;;19.23;14.13;;;13.50;99.90;;;;;;6178344;28;20476;-82
2021/10/17 12:41:37;;;;;;;18.80;14.57;;;13.50;99.90;;;;;;6179668;28;20153;-90
2021/10/17 12:44:59;;;;;;;20.20;13.88;;;13.40;99.90;;;;;;6178629;28;20062;-87
2021/10/17 12:48:00;;;;;;;20.65;15.05;;;13.40;99.90;;;;;;6178906;28;20034;-88
2021/10/17 12:51:01;;;;;;;17.08;13.77;;;13.10;99.90;;;;;;6178815;28;20254;-90
2021/10/17 12:54:06;;;;;;;17.23;13.57;;;13.20;99.90;;;;;;6178491;28;20050;-88
2021/10/17 12:57:07;;;;;;;19.40;15.30;;;13.20;99.90;;;;;;6178673;28;20465;-90
2021/10/17 13:00:09;;;;;;;21.05;14.50;;;12.90;99.90;;;;;;6179239;28;20754;-86
2021/10/17 13:03:11;;;;;;;17.98;14.93;;;13.10;99.90;;;;;;6164169;28;20035;-89
2021/10/17 13:06:15;;;;;;;17.20;14.43;;;13.10;99.90;;;;;;6179225;28;20535;-85
2021/10/17 13:09:15;;;;;;;18.13;14.00;;;13.20;99.90;;;;;;6179111;28;20048;-89
2021/10/17 13:12:29;;;;;;;18.98;14.10;;;13.10;99.90;;;;;;6195236;28;20022;-91
2021/10/17 13:15:32;;;;;;;17.75;14.52;;;13.10;99.90;;;;;;6178655;28;20090;-89
2021/10/17 13:18:32;;;;;;;18.33;14.18;;;13.60;99.90;;;;;;6175421;28;20046;-86
2021/10/17 13:21:33;;;;;;;19.08;14.43;;;13.00;99.90;;;;;;6192528;28;20496;-87
2021/10/17 13:24:34;;;;;;;20.13;14.82;;;13.10;99.90;;;;;;6177272;28;20030;-86
2021/10/17 13:27:35;;;;;;;19.02;13.85;;;;;;;;;;6177190;28;20506;-86
2021/10/17 13:30:35;;;;;;;17.77;14.65;;;13.10;99.90;;;;;;6193707;28;20038;-87
2021/10/17 13:33:36;;;;;;;20.33;16.33;;;12.90;99.90;;;;;;6179180;28;20441;-89
2021/10/17 13:36:37;;;;;;;18.52;15.20;;;12.90;99.90;;;;;;6177464;28;20089;-87
2021/10/17 13:39:37;;;;;;;21.88;16.63;;;12.70;99.90;;;;;;6177194;28;20072;-89
2021/10/17 13:42:38;;;;;;;20.55;15.60;;;12.50;99.90;;;;;;6176814;28;20022;-88
2021/10/17 13:45:39;;;;;;;20.20;15.32;;;12.80;99.90;;;;;;6177090;28;20050;-88
2021/10/17 13:48:41;;;;;;;19.00;15.18;;;12.70;99.90;;;;;;6177117;28;20369;-89
2021/10/17 13:51:42;;;;;;;19.05;15.55;;;12.80;99.90;;;;;;6193559;28;20080;-89
2021/10/17 13:54:43;;;;;;;18.00;14.68;;;;;;;;;;6177306;28;20030;-89
2021/10/17 13:57:45;;;;;;;20.55;15.07;;;;;;;;;;6176694;28;20117;-85
2021/10/17 14:00:46;;;;;;;21.38;14.57;;;;;;;;;;6176764;28;20478;-86
2021/10/17 14:03:47;;;;;;;17.85;14.15;;;;;;;;;;6192884;28;20035;-85
2021/10/17 14:06:48;;;;;;;21.33;16.10;;;;;;;;;;6159515;28;20023;-85
2021/10/17 14:09:50;;;;;;;19.25;14.07;;;12.50;99.90;;;;;;6176745;28;20030;-84
2021/10/17 14:12:51;;;;;;;18.35;14.88;;;12.30;99.90;;;;;;6176309;28;20445;-85
2021/10/17 14:15:52;;;;;;;24.35;15.43;;;;;;;;;;6176437;28;20057;-86
2021/10/17 14:18:52;;;;;;;19.75;15.23;;;12.50;99.90;;;;;;6175912;28;20038;-84
2021/10/17 14:21:53;;;;;;;19.77;15.23;;;12.50;99.90;;;;;;6191989;28;20381;-84
2021/10/17 14:24:53;;;;;;;19.70;15.20;;;12.50;99.90;;;;;;6175040;28;20035;-86
2021/10/17 14:27:54;;;;;;;17.65;13.80;;;12.60;99.90;;;;;;6175528;28;20030;-87
2021/10/17 14:30:55;;;;;;;21.05;14.20;;;;;;;;;;6177354;28;20022;-86
2021/10/17 14:33:56;;;;;;;18.90;15.10;;;12.30;99.90;;;;;;6177501;28;20025;-91
2021/10/17 14:36:56;;;;;;;18.83;14.15;;;12.20;99.90;;;;;;6176796;28;20034;-90
2021/10/17 14:39:57;;;;;;;18.60;14.63;;;;;;;;;;6177192;28;20022;-87
2021/10/17 14:42:58;;;;;;;18.27;15.05;;;12.30;99.90;;;;;;6192674;28;20121;-87
2021/10/17 14:45:59;;;;;;;18.17;14.63;;;;;;;;;;6170044;28;20439;-90
2021/10/17 14:48:59;;;;;;;18.98;14.48;;;12.30;99.90;;;;;;6156711;28;20113;-85
2021/10/17 14:52:00;;;;;;;17.58;14.40;;;12.20;99.90;;;;;;6172330;28;20026;-82
2021/10/17 14:55:01;;;;;;;18.17;15.65;;;12.10;99.90;;;;;;6163195;28;20188;-85
2021/10/17 14:58:01;;;;;;;19.33;15.07;;;12.00;99.90;;;;;;6164830;28;20397;-88
2021/10/17 15:01:02;;;;;;;20.08;15.10;;;;;;;;;;6159133;28;20118;-90
2021/10/17 15:04:03;;;;;;;21.67;15.00;;;11.90;99.90;;;;;;6159371;28;20031;-85
2021/10/17 15:07:04;;;;;;;24.88;16.75;;;11.60;99.90;;;;;;6150516;28;20031;-87
2021/10/17 15:10:05;;;;;;;18.67;15.48;;;11.60;99.90;;;;;;6164819;28;20480;-87
2021/10/17 15:13:06;;;;;;;22.60;15.85;;;11.60;99.90;;;;;;6183200;28;20031;-85
2021/10/17 15:16:06;;;;;;;23.85;16.23;;;11.70;99.90;;;;;;6148401;28;20509;-87
2021/10/17 15:19:07;;;;;;;26.92;17.23;;;;;;;;;;6162313;28;20031;-83
2021/10/17 15:22:08;;;;;;;18.67;14.60;;;11.80;99.90;;;;;;6164326;28;20078;-84
2021/10/17 15:25:09;;;;;;;20.73;15.48;;;11.70;99.90;;;;;;6160708;28;20081;-82
2021/10/17 15:28:10;;;;;;;19.95;16.60;;;;;;;;;;6162954;28;20023;-89
2021/10/17 15:31:11;;;;;;;19.70;15.65;;;11.70;99.90;;;;;;6145203;28;20030;-87
2021/10/17 15:34:12;;;;;;;19.75;15.90;;;11.50;99.90;;;;;;6154464;28;20564;-85
2021/10/17 15:37:13;;;;;;;19.38;15.07;;;11.70;99.90;;;;;;6158066;28;20039;-84
2021/10/17 15:40:14;;;;;;;18.25;14.60;;;11.30;99.90;;;;;;6157253;28;20034;-84
2021/10/17 15:43:15;;;;;;;18.92;14.65;;;;;;;;;;6157913;28;20446;-86
2021/10/17 15:46:19;;;;;;;21.05;16.15;;;11.30;99.90;;;;;;6178870;28;20345;-86
2021/10/17 15:49:20;;;;;;;20.50;16.45;;;11.10;99.90;;;;;;6177900;28;20117;-86
2021/10/17 15:52:21;;;;;;;22.42;16.90;;;;;;;;;;6177907;28;20036;-86
2021/10/17 15:55:22;;;;;;;20.80;15.32;;;;;;;;;;6178457;28;20427;-85
2021/10/17 15:58:22;;;;;;;20.38;15.65;;;10.80;99.90;;;;;;6178467;28;20030;-89
2021/10/17 16:01:23;;;;;;;22.83;17.00;;;;;;;;;;6177829;28;20562;-87
2021/10/17 16:04:24;;;;;;;21.27;15.77;;;;;;;;;;6179278;28;20149;-87
2021/10/17 16:07:25;;;;;;;21.30;15.88;;;10.60;99.90;;;;;;6178598;28;20041;-88